Time;durP1;ratioP1;P1;durP2;ratioP2;P2;SDS_P1;SDS_P2;PMS_P1;PMS_P2;Temp;Humidity;BMP_temperature;BMP_pressure;BME280_temperature;BME280_humidity;BME280_pressure;Samples;Min_cycle;Max_cycle;Signal;HPM_P1;HPM_P2
2023/01/20 00:02:01;;;;;;;9.15;5.57;;;0.30;99.90;;;;;;5022637;28;20040;-83
2023/01/20 00:04:27;;;;;;;11.77;7.00;;;0.30;99.90;;;;;;5022991;28;20059;-84
2023/01/20 00:06:53;;;;;;;12.40;6.43;;;0.30;99.90;;;;;;5002136;28;20095;-83
2023/01/20 00:09:19;;;;;;;16.50;14.15;;;0.30;99.90;;;;;;5008807;28;20033;-83
2023/01/20 00:11:45;;;;;;;16.42;14.43;;;0.20;99.90;;;;;;5034240;28;20134;-83
2023/01/20 00:14:11;;;;;;;16.38;13.82;;;0.20;99.90;;;;;;5032015;28;20059;-82
2023/01/20 00:16:36;;;;;;;18.30;14.65;;;0.10;99.90;;;;;;5034502;28;20509;-83
2023/01/20 00:19:03;;;;;;;18.73;14.63;;;0.10;99.90;;;;;;5031522;28;20120;-83
2023/01/20 00:21:28;;;;;;;19.30;15.43;;;0.00;99.90;;;;;;4996433;28;20065;-83
2023/01/20 00:23:54;;;;;;;18.73;16.08;;;0.00;99.90;;;;;;4998213;28;20034;-82
2023/01/20 00:26:22;;;;;;;19.38;16.13;;;0.00;99.90;;;;;;5022165;28;20037;-83
2023/01/20 00:28:49;;;;;;;19.00;16.80;;;0.00;99.90;;;;;;5016739;28;20687;-83
2023/01/20 00:31:20;;;;;;;12.40;7.22;;;0.00;99.90;;;;;;5021225;28;20032;-83
2023/01/20 00:33:47;;;;;;;20.65;16.33;;;0.00;99.90;;;;;;5025979;28;20148;-83
2023/01/20 00:36:14;;;;;;;9.60;5.82;;;0.00;99.90;;;;;;5024266;28;20037;-83
2023/01/20 00:38:40;;;;;;;18.58;15.35;;;0.00;99.90;;;;;;5000529;28;22178;-82
2023/01/20 00:41:06;;;;;;;14.60;6.45;;;-0.10;99.90;;;;;;5018744;28;20076;-83
2023/01/20 00:43:32;;;;;;;22.77;17.17;;;-0.10;99.90;;;;;;5020955;28;20123;-83
2023/01/20 00:45:58;;;;;;;11.45;5.72;;;-0.10;99.90;;;;;;5027562;28;20056;-83
2023/01/20 00:48:24;;;;;;;20.48;16.38;;;-0.20;99.90;;;;;;5011038;28;20029;-86
2023/01/20 00:50:50;;;;;;;23.63;17.58;;;-0.10;99.90;;;;;;5011280;28;20519;-84
2023/01/20 00:53:16;;;;;;;23.35;19.63;;;-0.10;99.90;;;;;;5034438;28;20156;-83
2023/01/20 00:55:41;;;;;;;22.05;18.85;;;0.00;99.90;;;;;;5018355;28;20042;-82
2023/01/20 00:58:07;;;;;;;24.08;19.25;;;0.10;99.90;;;;;;5015476;28;20037;-83
2023/01/20 01:00:33;;;;;;;26.77;20.80;;;0.10;99.90;;;;;;5010179;28;20046;-84
2023/01/20 01:02:59;;;;;;;29.60;21.50;;;0.10;99.90;;;;;;5027227;28;20041;-84
2023/01/20 01:05:24;;;;;;;29.13;22.05;;;0.20;99.90;;;;;;5014300;28;20557;-85
2023/01/20 01:07:50;;;;;;;14.65;8.73;;;0.20;99.90;;;;;;5018848;28;20047;-83
2023/01/20 01:10:16;;;;;;;30.80;23.08;;;0.20;99.90;;;;;;5028424;28;20038;-83
2023/01/20 01:12:41;;;;;;;13.00;8.18;;;0.20;99.90;;;;;;5017132;28;20064;-83
2023/01/20 01:15:07;;;;;;;19.80;8.70;;;0.20;99.90;;;;;;5018907;28;20045;-83
2023/01/20 01:17:33;;;;;;;33.35;24.38;;;0.20;99.90;;;;;;5035978;28;20041;-84
2023/01/20 01:19:58;;;;;;;31.75;22.92;;;0.30;99.90;;;;;;5014113;28;20177;-83
2023/01/20 01:22:24;;;;;;;33.70;22.80;;;0.30;99.90;;;;;;5023695;28;20037;-83
2023/01/20 01:24:50;;;;;;;35.28;23.58;;;0.30;99.90;;;;;;5017091;28;20041;-84
2023/01/20 01:27:15;;;;;;;33.72;22.95;;;0.30;99.90;;;;;;5019157;28;20114;-84
2023/01/20 01:29:41;;;;;;;35.25;23.02;;;0.30;99.90;;;;;;5008757;28;20082;-83
2023/01/20 01:32:07;;;;;;;36.88;22.73;;;0.30;99.90;;;;;;5023850;28;20225;-84
2023/01/20 01:34:33;;;;;;;20.27;9.23;;;0.30;99.90;;;;;;5023372;28;20059;-84
2023/01/20 01:36:59;;;;;;;17.02;8.45;;;0.30;99.90;;;;;;5024771;28;20067;-84
2023/01/20 01:39:24;;;;;;;34.97;23.02;;;0.20;99.90;;;;;;5014857;28;20033;-84
2023/01/20 01:41:50;;;;;;;31.95;22.25;;;0.30;99.90;;;;;;5014536;28;20068;-83
2023/01/20 01:44:16;;;;;;;29.48;21.33;;;0.30;99.90;;;;;;4995604;28;20495;-84
2023/01/20 01:46:42;;;;;;;29.17;21.25;;;0.30;99.90;;;;;;5019075;28;20132;-85
2023/01/20 01:49:23;;;;;;;17.70;9.13;;;0.30;99.90;;;;;;5012506;28;20067;-84
2023/01/20 01:52:03;;;;;;;19.65;9.55;;;0.20;99.90;;;;;;4981924;28;20042;-83
2023/01/20 01:54:39;;;;;;;31.23;22.38;;;0.20;99.90;;;;;;5008733;28;20079;-83
2023/01/20 01:57:07;;;;;;;32.08;21.98;;;0.20;99.90;;;;;;4991178;28;20067;-83
2023/01/20 01:59:33;;;;;;;32.35;22.42;;;0.20;99.90;;;;;;5013528;28;20068;-83
2023/01/20 02:01:59;;;;;;;34.13;22.42;;;0.20;99.90;;;;;;5020537;28;20041;-83
2023/01/20 02:04:26;;;;;;;35.72;22.42;;;0.20;99.90;;;;;;5037036;28;20037;-84
2023/01/20 02:07:19;;;;;;;37.08;22.50;;;0.20;99.90;;;;;;5036477;28;20068;-83
2023/01/20 02:09:45;;;;;;;37.88;23.02;;;0.20;99.90;;;;;;5017071;28;20056;-83
2023/01/20 02:12:14;;;;;;;40.03;22.77;;;0.20;99.90;;;;;;5009608;28;20504;-83
2023/01/20 02:14:47;;;;;;;38.15;22.73;;;0.20;99.90;;;;;;5016500;28;20053;-84
2023/01/20 02:17:20;;;;;;;38.60;22.35;;;0.30;99.90;;;;;;5016166;28;20147;-83
2023/01/20 02:20:05;;;;;;;19.40;10.70;;;0.20;99.90;;;;;;5018392;28;20395;-83
2023/01/20 02:22:39;;;;;;;16.67;8.52;;;0.20;99.90;;;;;;5003442;28;20037;-84
2023/01/20 02:25:23;;;;;;;18.42;9.32;;;0.30;99.90;;;;;;5015883;28;20037;-83
2023/01/20 02:28:17;;;;;;;35.53;22.08;;;0.30;99.90;;;;;;5015604;28;20604;-84
2023/01/20 02:31:07;;;;;;;34.97;22.73;;;0.20;99.90;;;;;;5010736;28;20045;-83
2023/01/20 02:33:41;;;;;;;20.92;10.55;;;0.30;99.90;;;;;;4998653;28;20088;-83
2023/01/20 02:36:38;;;;;;;34.45;21.85;;;0.20;99.90;;;;;;5001210;28;20053;-84
2023/01/20 02:39:26;;;;;;;35.78;21.63;;;0.20;99.90;;;;;;5000513;28;20029;-83
2023/01/20 02:42:00;;;;;;;36.67;22.45;;;0.20;99.90;;;;;;5019160;28;20044;-83
2023/01/20 02:44:56;;;;;;;35.78;21.55;;;0.20;99.90;;;;;;5002740;28;20081;-83
2023/01/20 02:47:36;;;;;;;22.92;10.38;;;0.20;99.90;;;;;;4986663;28;20044;-84
2023/01/20 02:50:17;;;;;;;36.33;22.00;;;0.20;99.90;;;;;;5022945;28;20141;-84
2023/01/20 02:52:47;;;;;;;35.30;21.50;;;0.30;99.90;;;;;;5011968;28;20037;-83
2023/01/20 02:55:21;;;;;;;36.53;22.67;;;0.30;99.90;;;;;;5020318;28;20033;-83
2023/01/20 02:57:50;;;;;;;23.95;10.55;;;0.30;99.90;;;;;;5035827;28;20055;-83
2023/01/20 03:00:26;;;;;;;37.38;22.02;;;0.30;99.90;;;;;;4997050;28;20033;-84
2023/01/20 03:02:54;;;;;;;20.48;9.90;;;0.30;99.90;;;;;;5017007;28;20038;-83
2023/01/20 03:05:24;;;;;;;33.97;20.20;;;0.30;99.90;;;;;;5009007;28;20033;-83
2023/01/20 03:07:52;;;;;;;32.83;20.38;;;0.30;99.90;;;;;;4992441;28;20041;-84
2023/01/20 03:10:21;;;;;;;34.88;21.35;;;0.30;99.90;;;;;;5004592;28;20045;-83
2023/01/20 03:13:03;;;;;;;35.72;21.00;;;0.30;99.90;;;;;;5036896;28;20036;-83
2023/01/20 03:15:40;;;;;;;36.30;21.83;;;0.20;99.90;;;;;;5007931;28;20049;-83
2023/01/20 03:18:05;;;;;;;35.25;21.35;;;0.30;99.90;;;;;;5026455;28;20048;-83
2023/01/20 03:20:31;;;;;;;36.08;20.92;;;0.30;99.90;;;;;;5012502;28;20037;-83
2023/01/20 03:22:57;;;;;;;37.80;21.58;;;0.30;99.90;;;;;;5019863;28;20040;-83
2023/01/20 03:25:24;;;;;;;34.42;21.27;;;0.30;99.90;;;;;;5009414;28;20488;-84
2023/01/20 03:27:49;;;;;;;37.50;22.58;;;0.30;99.90;;;;;;5013877;28;20042;-84
2023/01/20 03:30:16;;;;;;;36.08;21.63;;;0.30;99.90;;;;;;5028812;28;20033;-83
2023/01/20 03:32:44;;;;;;;34.53;21.45;;;0.30;99.90;;;;;;5043302;28;20048;-83
2023/01/20 03:35:12;;;;;;;34.15;22.70;;;0.30;99.90;;;;;;5026189;28;20063;-83
2023/01/20 03:37:38;;;;;;;20.33;10.35;;;0.30;99.90;;;;;;5024813;28;20037;-83
2023/01/20 03:40:04;;;;;;;37.22;22.48;;;0.30;99.90;;;;;;5004147;28;20071;-84
2023/01/20 03:42:38;;;;;;;34.88;22.08;;;0.30;99.90;;;;;;5013523;28;20044;-83
2023/01/20 03:45:31;;;;;;;32.20;22.02;;;0.30;99.90;;;;;;5004873;28;20042;-83
2023/01/20 03:48:00;;;;;;;32.53;22.55;;;0.40;99.90;;;;;;5021606;28;20045;-84
2023/01/20 03:50:33;;;;;;;34.03;22.10;;;0.40;99.90;;;;;;5031703;28;20052;-83
2023/01/20 03:53:14;;;;;;;36.20;23.40;;;0.30;99.90;;;;;;4997772;28;20145;-83
2023/01/20 03:55:48;;;;;;;37.38;23.55;;;0.40;99.90;;;;;;5016566;28;20446;-84
2023/01/20 03:58:19;;;;;;;36.88;23.25;;;0.40;99.90;;;;;;5026732;28;20025;-85
2023/01/20 04:00:48;;;;;;;32.22;22.90;;;0.30;99.90;;;;;;5025037;28;20060;-84
2023/01/20 04:03:25;;;;;;;35.22;23.55;;;0.40;99.90;;;;;;5042477;28;20041;-84
2023/01/20 04:05:51;;;;;;;35.28;23.48;;;0.40;99.90;;;;;;5018448;28;20029;-83
2023/01/20 04:08:19;;;;;;;34.67;23.60;;;0.40;99.90;;;;;;5005053;28;20086;-84
2023/01/20 04:10:47;;;;;;;37.08;24.02;;;0.40;99.90;;;;;;5021250;28;20037;-83
2023/01/20 04:13:14;;;;;;;36.30;24.50;;;0.40;99.90;;;;;;5038046;28;20041;-83
2023/01/20 04:15:44;;;;;;;36.65;25.20;;;0.40;99.90;;;;;;5031079;28;20049;-84
2023/01/20 04:18:19;;;;;;;40.33;25.38;;;0.40;99.90;;;;;;5007625;28;20709;-84
2023/01/20 04:20:50;;;;;;;37.45;24.33;;;0.40;99.90;;;;;;5012997;28;20052;-83
2023/01/20 04:23:30;;;;;;;39.63;25.48;;;0.40;99.90;;;;;;5008269;28;20037;-83
2023/01/20 04:25:56;;;;;;;39.47;26.17;;;0.40;99.90;;;;;;4982053;28;20072;-84
2023/01/20 04:28:22;;;;;;;41.45;26.48;;;0.40;99.90;;;;;;4999003;28;20083;-83
2023/01/20 04:30:47;;;;;;;40.28;26.13;;;0.40;99.90;;;;;;5009588;28;20042;-83
2023/01/20 04:33:13;;;;;;;23.35;11.20;;;0.40;99.90;;;;;;4999330;28;20040;-83
2023/01/20 04:35:39;;;;;;;21.92;10.70;;;0.40;99.90;;;;;;5013984;28;20042;-81
2023/01/20 04:38:05;;;;;;;43.90;26.30;;;0.40;99.90;;;;;;5016318;28;20124;-81
2023/01/20 04:40:31;;;;;;;43.47;27.58;;;0.40;99.90;;;;;;5017577;28;20041;-81
2023/01/20 04:42:56;;;;;;;41.63;27.02;;;0.40;99.90;;;;;;5021739;28;20435;-81
2023/01/20 04:45:22;;;;;;;46.08;28.00;;;0.40;99.90;;;;;;5018808;28;20041;-81
2023/01/20 04:47:48;;;;;;;45.75;28.40;;;0.40;99.90;;;;;;5010201;28;20069;-81
2023/01/20 04:50:14;;;;;;;43.45;27.83;;;0.40;99.90;;;;;;5005680;28;20079;-81
2023/01/20 04:52:40;;;;;;;47.47;28.35;;;0.40;99.90;;;;;;5016698;28;20045;-81
2023/01/20 04:55:06;;;;;;;29.27;13.85;;;0.40;99.90;;;;;;5022120;28;20514;-82
2023/01/20 04:57:31;;;;;;;26.45;11.73;;;0.50;99.90;;;;;;5022747;28;20043;-82
2023/01/20 04:59:57;;;;;;;43.97;27.88;;;0.40;99.90;;;;;;5006796;28;20041;-82
2023/01/20 05:02:22;;;;;;;48.28;29.27;;;0.40;99.90;;;;;;5004508;28;20506;-81
2023/01/20 05:04:48;;;;;;;47.72;28.42;;;0.40;99.90;;;;;;5013561;28;20071;-82
2023/01/20 05:07:14;;;;;;;50.80;28.35;;;0.40;99.90;;;;;;5019420;28;20048;-81
2023/01/20 05:09:39;;;;;;;50.30;29.30;;;0.40;99.90;;;;;;5036177;28;20403;-82
2023/01/20 05:12:05;;;;;;;46.47;29.00;;;0.50;99.90;;;;;;5013167;28;20037;-82
2023/01/20 05:14:31;;;;;;;45.85;27.88;;;0.40;99.90;;;;;;5014937;28;20048;-81
2023/01/20 05:16:56;;;;;;;48.70;29.00;;;0.40;99.90;;;;;;5017393;28;20037;-81
2023/01/20 05:19:22;;;;;;;47.15;28.60;;;0.40;99.90;;;;;;4998642;28;20407;-81
2023/01/20 05:21:48;;;;;;;47.15;28.40;;;0.40;99.90;;;;;;5010089;28;20044;-81
2023/01/20 05:24:13;;;;;;;46.00;29.17;;;0.40;99.90;;;;;;5019376;28;20037;-81
2023/01/20 05:26:39;;;;;;;48.28;29.05;;;0.40;99.90;;;;;;5020999;28;20351;-81
2023/01/20 05:29:04;;;;;;;30.10;12.60;;;0.40;99.90;;;;;;5016516;28;20032;-82
2023/01/20 05:31:30;;;;;;;48.33;29.58;;;0.40;99.90;;;;;;4997161;28;20034;-81
2023/01/20 05:33:56;;;;;;;50.67;31.45;;;0.40;99.90;;;;;;5016694;28;20068;-81
2023/01/20 05:36:22;;;;;;;53.35;30.70;;;0.40;99.90;;;;;;5024728;28;20132;-81
2023/01/20 05:38:47;;;;;;;55.08;32.17;;;0.40;99.90;;;;;;5041284;28;20443;-81
2023/01/20 05:41:13;;;;;;;53.70;32.28;;;0.40;99.90;;;;;;5019900;28;20044;-81
2023/01/20 05:43:38;;;;;;;52.25;31.75;;;0.40;99.90;;;;;;5033867;28;20033;-81
2023/01/20 05:46:05;;;;;;;48.38;32.10;;;0.40;99.90;;;;;;4995234;28;20033;-81
2023/01/20 05:48:31;;;;;;;50.75;33.72;;;0.50;99.90;;;;;;5006041;28;20076;-81
2023/01/20 05:50:56;;;;;;;51.92;33.65;;;0.50;99.90;;;;;;5004978;28;20124;-81
2023/01/20 05:53:22;;;;;;;56.65;33.65;;;0.50;99.90;;;;;;5016519;28;20072;-81
2023/01/20 05:55:48;;;;;;;56.10;34.20;;;0.50;99.90;;;;;;5026363;28;20124;-81
2023/01/20 05:58:14;;;;;;;32.50;14.52;;;0.50;99.90;;;;;;5022996;28;20033;-82
2023/01/20 06:00:40;;;;;;;50.58;33.97;;;0.50;99.90;;;;;;5006521;28;20431;-81
2023/01/20 06:03:06;;;;;;;53.58;34.60;;;0.50;99.90;;;;;;5004125;28;20038;-82
2023/01/20 06:05:32;;;;;;;54.00;35.50;;;0.50;99.90;;;;;;5011907;28;20029;-81
2023/01/20 06:07:58;;;;;;;52.30;34.65;;;0.50;99.90;;;;;;5004957;28;20047;-82
2023/01/20 06:10:26;;;;;;;55.20;34.78;;;0.50;99.90;;;;;;5029568;28;20068;-81
2023/01/20 06:12:55;;;;;;;44.38;16.77;;;0.50;99.90;;;;;;5008676;28;20391;-81
2023/01/20 06:15:22;;;;;;;51.58;34.03;;;0.50;99.90;;;;;;5015998;28;20091;-81
2023/01/20 06:17:49;;;;;;;52.53;35.38;;;0.50;99.90;;;;;;5034926;28;20041;-81
2023/01/20 06:20:14;;;;;;;56.90;36.10;;;0.50;99.90;;;;;;5015813;28;20442;-81
2023/01/20 06:22:40;;;;;;;35.63;16.77;;;0.50;99.90;;;;;;5001313;28;20124;-81
2023/01/20 06:25:06;;;;;;;56.80;37.25;;;0.50;99.90;;;;;;5009712;28;20056;-82
2023/01/20 06:27:32;;;;;;;54.75;35.97;;;0.50;99.90;;;;;;5010299;28;20029;-81
2023/01/20 06:29:57;;;;;;;57.75;36.30;;;0.50;99.90;;;;;;4995529;28;20041;-81
2023/01/20 06:32:23;;;;;;;60.97;36.20;;;0.50;99.90;;;;;;4998269;28;20040;-81
2023/01/20 06:34:48;;;;;;;56.95;36.00;;;0.60;99.90;;;;;;4996953;28;20404;-81
2023/01/20 06:37:14;;;;;;;56.47;35.95;;;0.50;99.90;;;;;;5032191;28;20037;-81
2023/01/20 06:39:40;;;;;;;59.88;36.83;;;0.50;99.90;;;;;;5019305;28;20433;-81
2023/01/20 06:42:06;;;;;;;56.35;35.80;;;0.50;99.90;;;;;;5024436;28;20037;-81
2023/01/20 06:44:32;;;;;;;58.22;35.75;;;0.60;99.90;;;;;;5003690;28;20034;-81
2023/01/20 06:46:58;;;;;;;38.90;17.45;;;0.60;99.90;;;;;;5023308;28;20034;-81
2023/01/20 06:49:24;;;;;;;54.25;36.53;;;0.50;99.90;;;;;;5019981;28;20049;-81
2023/01/20 06:51:50;;;;;;;58.22;36.17;;;0.50;99.90;;;;;;5014332;28;20049;-81
2023/01/20 06:54:16;;;;;;;60.75;37.67;;;0.50;99.90;;;;;;5013999;28;20045;-82
2023/01/20 06:56:41;;;;;;;59.65;36.63;;;0.60;99.90;;;;;;5004241;28;20037;-81
2023/01/20 06:59:11;;;;;;;59.65;37.63;;;0.50;99.90;;;;;;5019016;28;20033;-81
2023/01/20 07:01:38;;;;;;;57.70;36.05;;;0.50;99.90;;;;;;5024717;28;20040;-82
2023/01/20 07:04:04;;;;;;;40.72;16.77;;;0.50;99.90;;;;;;5028831;28;20059;-82
2023/01/20 07:06:32;;;;;;;61.67;36.92;;;0.50;99.90;;;;;;5023995;28;20120;-81
2023/01/20 07:08:59;;;;;;;56.92;35.83;;;0.50;99.90;;;;;;5010211;28;20041;-81
2023/01/20 07:11:26;;;;;;;62.40;38.15;;;0.50;99.90;;;;;;5011701;28;20041;-81
2023/01/20 07:13:51;;;;;;;65.72;36.10;;;0.60;99.90;;;;;;5005252;28;20159;-82
2023/01/20 07:16:17;;;;;;;57.42;36.10;;;0.50;99.90;;;;;;5004289;28;20041;-81
2023/01/20 07:18:46;;;;;;;35.88;17.02;;;0.60;99.90;;;;;;5012757;28;20137;-82
2023/01/20 07:21:12;;;;;;;62.33;35.15;;;0.60;99.90;;;;;;5010314;28;20061;-82
2023/01/20 07:23:38;;;;;;;64.95;37.55;;;0.60;99.90;;;;;;5009949;28;20040;-81
2023/01/20 07:26:09;;;;;;;60.47;37.47;;;0.60;99.90;;;;;;5011134;28;20037;-82
2023/01/20 07:28:35;;;;;;;38.40;16.70;;;0.60;99.90;;;;;;5030341;28;20168;-82
2023/01/20 07:31:06;;;;;;;64.32;37.13;;;0.60;99.90;;;;;;5026051;28;20049;-82
2023/01/20 07:33:32;;;;;;;62.55;37.13;;;0.50;99.90;;;;;;5023156;28;20664;-79
2023/01/20 07:35:59;;;;;;;65.65;37.13;;;0.60;99.90;;;;;;5027906;28;20118;-80
2023/01/20 07:38:24;;;;;;;68.22;39.05;;;0.60;99.90;;;;;;5019105;28;20026;-81
2023/01/20 07:40:50;;;;;;;38.47;16.45;;;0.60;99.90;;;;;;5003245;28;20073;-80
2023/01/20 07:43:16;;;;;;;68.80;38.10;;;0.60;99.90;;;;;;5020770;28;20038;-81
2023/01/20 07:45:41;;;;;;;63.35;37.40;;;0.60;99.90;;;;;;5011805;28;20038;-79
2023/01/20 07:48:07;;;;;;;66.07;37.95;;;0.60;99.90;;;;;;5015823;28;20049;-79
2023/01/20 07:50:34;;;;;;;68.50;37.60;;;0.60;99.90;;;;;;5010825;28;20056;-79
2023/01/20 07:52:59;;;;;;;70.90;39.58;;;0.60;99.90;;;;;;5020701;28;20069;-79
2023/01/20 07:55:25;;;;;;;70.80;39.28;;;0.60;99.90;;;;;;5015489;28;20480;-79
2023/01/20 07:57:51;;;;;;;48.92;19.27;;;0.60;99.90;;;;;;5035147;28;20125;-79
2023/01/20 08:00:18;;;;;;;66.25;37.20;;;0.60;99.90;;;;;;5036663;28;20049;-79
2023/01/20 08:02:43;;;;;;;70.05;40.63;;;0.60;99.90;;;;;;5033503;28;20041;-79
2023/01/20 08:05:09;;;;;;;69.93;38.65;;;0.60;99.90;;;;;;5035315;28;20088;-80
2023/01/20 08:07:35;;;;;;;69.18;38.35;;;0.60;99.90;;;;;;5034151;28;20064;-79
2023/01/20 08:10:00;;;;;;;68.28;40.05;;;0.60;99.90;;;;;;5030394;28;20124;-79
2023/01/20 08:12:28;;;;;;;67.20;38.35;;;0.60;99.90;;;;;;5021235;28;20033;-79
2023/01/20 08:14:54;;;;;;;70.32;39.17;;;0.70;99.90;;;;;;5022063;28;20072;-79
2023/01/20 08:17:19;;;;;;;66.97;37.45;;;0.70;99.90;;;;;;5039397;28;20048;-80
2023/01/20 08:19:45;;;;;;;46.10;18.15;;;0.70;99.90;;;;;;5015793;28;20127;-81
2023/01/20 08:22:10;;;;;;;66.95;38.25;;;0.70;99.90;;;;;;5014591;28;20488;-78
2023/01/20 08:24:36;;;;;;;64.65;37.10;;;0.70;99.90;;;;;;5020322;28;20037;-79
2023/01/20 08:27:02;;;;;;;64.07;37.25;;;0.70;99.90;;;;;;5037875;28;20534;-79
2023/01/20 08:29:28;;;;;;;65.78;38.22;;;0.70;99.90;;;;;;5038959;28;20101;-79
2023/01/20 08:31:54;;;;;;;64.47;36.72;;;0.70;99.90;;;;;;5018013;28;20132;-79
2023/01/20 08:34:20;;;;;;;66.97;36.28;;;0.80;99.90;;;;;;5017875;28;20076;-78
2023/01/20 08:36:47;;;;;;;61.72;34.53;;;0.80;99.90;;;;;;5017898;28;20041;-79
2023/01/20 08:39:14;;;;;;;62.63;35.17;;;0.80;99.90;;;;;;5033578;28;20116;-79
2023/01/20 08:41:42;;;;;;;60.33;34.45;;;0.80;99.90;;;;;;5006332;28;20046;-79
2023/01/20 08:44:10;;;;;;;57.85;35.03;;;0.90;99.90;;;;;;5017761;28;20395;-79
2023/01/20 08:46:36;;;;;;;61.95;34.83;;;0.90;99.90;;;;;;5018013;28;20519;-79
2023/01/20 08:49:10;;;;;;;66.63;36.55;;;0.90;99.90;;;;;;5017606;28;20558;-79
2023/01/20 08:51:35;;;;;;;64.13;37.10;;;1.00;99.90;;;;;;5014499;28;20055;-78
2023/01/20 08:54:01;;;;;;;67.80;37.53;;;1.00;99.90;;;;;;4996705;28;20586;-78
2023/01/20 08:56:28;;;;;;;65.90;36.92;;;1.10;99.90;;;;;;5010929;28;20044;-78
2023/01/20 08:58:55;;;;;;;64.15;37.17;;;1.10;99.90;;;;;;5009488;28;20442;-81
2023/01/20 09:01:23;;;;;;;62.40;36.45;;;1.10;99.90;;;;;;5014198;28;20041;-80
2023/01/20 09:03:49;;;;;;;60.40;35.25;;;1.10;99.90;;;;;;5027946;28;20040;-81
2023/01/20 09:06:15;;;;;;;58.75;35.55;;;1.10;99.90;;;;;;4999542;28;20037;-82
2023/01/20 09:08:41;;;;;;;57.70;34.35;;;1.20;99.90;;;;;;5021750;28;20041;-81
2023/01/20 09:11:13;;;;;;;54.45;34.42;;;1.30;99.90;;;;;;5031102;28;20053;-81
2023/01/20 09:13:38;;;;;;;55.38;33.08;;;1.30;99.90;;;;;;5006946;28;20411;-81
2023/01/20 09:16:04;;;;;;;57.28;33.63;;;1.40;99.90;;;;;;5013225;28;20048;-80
2023/01/20 09:18:31;;;;;;;58.35;35.05;;;1.40;99.90;;;;;;5019997;28;20041;-80
2023/01/20 09:20:58;;;;;;;57.58;34.78;;;1.40;99.90;;;;;;5021136;28;20037;-81
2023/01/20 09:23:24;;;;;;;53.40;32.50;;;1.40;99.90;;;;;;5037955;28;20045;-80
2023/01/20 09:25:50;;;;;;;54.45;33.30;;;1.40;99.90;;;;;;5021450;28;20041;-80
2023/01/20 09:28:16;;;;;;;54.22;33.78;;;1.40;99.90;;;;;;5021349;28;20043;-80
2023/01/20 09:30:42;;;;;;;52.50;33.25;;;1.40;99.90;;;;;;5021302;28;20036;-80
2023/01/20 09:33:12;;;;;;;48.45;30.13;;;1.40;99.90;;;;;;5002853;28;20508;-80
2023/01/20 09:35:38;;;;;;;48.00;29.85;;;1.40;99.90;;;;;;4999636;28;20075;-80
2023/01/20 09:44:13;;;;;;;42.90;27.33;;;1.50;99.90;;;;;;5032816;28;20113;-79
2023/01/20 09:47:20;;;;;;;44.17;28.52;;;1.60;99.90;;;;;;5024408;28;20081;-81
2023/01/20 09:53:03;;;;;;;45.08;27.92;;;1.60;99.90;;;;;;5027154;28;20099;-78
2023/01/20 09:55:44;;;;;;;44.20;28.30;;;1.60;99.90;;;;;;4999322;28;20225;-81
2023/01/20 09:58:47;;;;;;;43.95;27.70;;;1.60;99.90;;;;;;5021548;28;20099;-82
2023/01/20 10:01:40;;;;;;;41.55;27.55;;;1.60;99.90;;;;;;5030498;28;20068;-80
2023/01/20 10:04:31;;;;;;;42.55;25.92;;;1.60;99.90;;;;;;5022984;28;20045;-80
2023/01/20 10:07:16;;;;;;;41.50;27.90;;;1.60;99.90;;;;;;5019833;28;20075;-80
2023/01/20 10:10:15;;;;;;;38.63;26.38;;;1.60;99.90;;;;;;5036298;28;20041;-81
2023/01/20 10:13:07;;;;;;;40.95;25.83;;;1.70;99.90;;;;;;5027572;28;20041;-81
2023/01/20 10:15:35;;;;;;;43.83;30.90;;;1.70;99.90;;;;;;5030678;28;20056;-81
2023/01/20 10:18:08;;;;;;;42.78;27.48;;;1.70;99.90;;;;;;5042532;28;20044;-79
2023/01/20 10:20:45;;;;;;;38.42;26.13;;;1.70;99.90;;;;;;5043339;28;20049;-79
2023/01/20 10:23:54;;;;;;;41.92;27.13;;;1.80;99.90;;;;;;5035646;28;20032;-79
2023/01/20 10:26:32;;;;;;;45.28;26.52;;;1.80;99.90;;;;;;5026620;28;20037;-81
2023/01/20 10:29:00;;;;;;;38.05;25.17;;;1.80;99.90;;;;;;5040117;28;20044;-80
2023/01/20 10:31:28;;;;;;;40.30;25.10;;;1.80;99.90;;;;;;5013103;28;20033;-79
2023/01/20 10:34:04;;;;;;;40.75;25.17;;;1.80;99.90;;;;;;5031080;28;20037;-78
2023/01/20 10:36:33;;;;;;;36.92;24.33;;;1.80;99.90;;;;;;5008329;28;20258;-79
2023/01/20 10:39:21;;;;;;;37.97;24.73;;;1.90;99.90;;;;;;5009022;28;20080;-79
2023/01/20 10:42:08;;;;;;;39.00;24.60;;;1.90;99.90;;;;;;5021903;28;20037;-79
2023/01/20 10:44:34;;;;;;;38.17;24.30;;;1.90;99.90;;;;;;5024430;28;20087;-79
2023/01/20 10:47:31;;;;;;;39.90;25.15;;;1.90;99.90;;;;;;5012870;28;20064;-79
2023/01/20 10:50:18;;;;;;;36.72;22.98;;;1.80;99.90;;;;;;5013436;28;20044;-79
2023/01/20 10:53:02;;;;;;;43.38;24.67;;;1.80;99.90;;;;;;5024710;28;20045;-78
2023/01/20 10:55:49;;;;;;;35.60;24.55;;;1.80;99.90;;;;;;5010153;28;20073;-79
2023/01/20 10:58:45;;;;;;;39.25;24.83;;;1.90;99.90;;;;;;5007291;28;20053;-79
2023/01/20 11:01:15;;;;;;;36.30;23.08;;;1.80;99.90;;;;;;5008446;28;20056;-79
2023/01/20 11:03:43;;;;;;;40.08;25.10;;;1.90;99.90;;;;;;5017131;28;20034;-78
2023/01/20 11:06:21;;;;;;;36.95;23.58;;;1.90;99.90;;;;;;5014672;28;20445;-79
2023/01/20 11:08:47;;;;;;;35.25;23.20;;;1.90;99.90;;;;;;5012452;28;20542;-78
2023/01/20 11:11:22;;;;;;;39.65;24.52;;;1.90;99.90;;;;;;5017059;28;20564;-79
2023/01/20 11:13:50;;;;;;;37.22;23.48;;;1.90;99.90;;;;;;5016202;28;20042;-78
2023/01/20 11:16:25;;;;;;;37.47;25.23;;;1.90;99.90;;;;;;5016930;28;20042;-79
2023/01/20 11:19:03;;;;;;;39.67;24.80;;;2.00;99.90;;;;;;5016709;28;20073;-79
2023/01/20 11:21:32;;;;;;;39.60;24.23;;;2.00;99.90;;;;;;5008505;28;20120;-79
2023/01/20 11:23:58;;;;;;;38.38;24.10;;;2.00;99.90;;;;;;5000031;28;20076;-79
2023/01/20 11:26:33;;;;;;;39.90;24.08;;;2.00;99.90;;;;;;5022662;28;20495;-79
2023/01/20 11:29:07;;;;;;;38.50;24.98;;;2.00;99.90;;;;;;5016566;28;20033;-79
2023/01/20 11:31:46;;;;;;;36.38;23.65;;;2.00;99.90;;;;;;5014445;28;20391;-79
2023/01/20 11:34:29;;;;;;;37.67;24.10;;;2.00;99.90;;;;;;5000328;28;20068;-79
2023/01/20 11:37:04;;;;;;;36.42;23.75;;;2.00;99.90;;;;;;5001785;28;20402;-79
2023/01/20 11:39:30;;;;;;;36.90;24.23;;;2.00;99.90;;;;;;5016665;28;20041;-78
2023/01/20 11:42:14;;;;;;;39.72;24.90;;;2.00;99.90;;;;;;5002488;28;20479;-79
2023/01/20 11:44:42;;;;;;;37.10;24.40;;;2.00;99.90;;;;;;5025750;28;20037;-79
2023/01/20 11:47:26;;;;;;;37.42;23.50;;;2.00;99.90;;;;;;5022523;28;20047;-79
2023/01/20 11:50:03;;;;;;;38.67;24.90;;;2.10;99.90;;;;;;5012336;28;20081;-78
2023/01/20 11:52:31;;;;;;;36.47;23.90;;;2.10;99.90;;;;;;5022429;28;20065;-79
2023/01/20 11:55:11;;;;;;;41.33;25.52;;;2.00;99.90;;;;;;4992661;28;20537;-79
2023/01/20 11:57:50;;;;;;;41.40;27.17;;;2.00;99.90;;;;;;4997405;28;20049;-78
2023/01/20 12:00:18;;;;;;;40.20;26.60;;;2.00;99.90;;;;;;5014969;28;20369;-78
2023/01/20 12:03:13;;;;;;;41.60;25.65;;;2.00;99.90;;;;;;5008335;28;20451;-83
2023/01/20 12:05:47;;;;;;;40.90;26.42;;;2.00;99.90;;;;;;5004296;28;20522;-80
2023/01/20 12:08:41;;;;;;;41.10;26.77;;;2.00;99.90;;;;;;5030780;28;20044;-81
2023/01/20 12:11:09;;;;;;;41.60;25.40;;;2.00;99.90;;;;;;5003587;28;20049;-80
2023/01/20 12:16:31;;;;;;;40.13;25.52;;;2.00;99.90;;;;;;5019690;28;20104;-81
2023/01/20 12:19:02;;;;;;;41.92;26.52;;;2.00;99.90;;;;;;5023747;28;20030;-77
2023/01/20 12:21:35;;;;;;;40.40;27.00;;;2.00;99.90;;;;;;5011693;28;20046;-77
2023/01/20 12:24:22;;;;;;;40.20;26.40;;;2.00;99.90;;;;;;5014387;28;20049;-78
2023/01/20 12:26:48;;;;;;;42.85;25.73;;;2.00;99.90;;;;;;5024437;28;20045;-81
2023/01/20 12:29:43;;;;;;;40.67;25.95;;;2.00;99.90;;;;;;5042357;28;20509;-81
2023/01/20 12:32:09;;;;;;;37.35;24.70;;;2.00;99.90;;;;;;5025404;28;20040;-81
2023/01/20 12:34:35;;;;;;;37.58;25.05;;;1.90;99.90;;;;;;5016294;28;20133;-81
2023/01/20 12:37:03;;;;;;;39.72;24.95;;;2.00;99.90;;;;;;5017097;28;20037;-81
2023/01/20 12:39:48;;;;;;;39.60;25.55;;;2.00;99.90;;;;;;5035628;28;20087;-81
2023/01/20 12:42:30;;;;;;;40.78;24.95;;;2.00;99.90;;;;;;5029744;28;20124;-81
2023/01/20 12:45:21;;;;;;;38.28;25.35;;;2.00;99.90;;;;;;5029927;28;20033;-81
2023/01/20 12:48:18;;;;;;;38.15;25.70;;;2.00;99.90;;;;;;5029524;28;20045;-80
2023/01/20 12:51:09;;;;;;;39.25;25.85;;;2.00;99.90;;;;;;5009983;28;20088;-82
2023/01/20 12:54:04;;;;;;;38.05;25.23;;;2.00;99.90;;;;;;5023990;28;20041;-82
2023/01/20 12:56:43;;;;;;;39.55;25.02;;;2.00;99.90;;;;;;5026693;28;20032;-80
2023/01/20 12:59:39;;;;;;;37.40;25.05;;;2.00;99.90;;;;;;5009952;28;20037;-80
2023/01/20 13:02:36;;;;;;;45.45;28.92;;;2.00;99.90;;;;;;5023660;28;20053;-80
2023/01/20 13:05:07;;;;;;;43.58;27.80;;;2.00;99.90;;;;;;4999509;28;20412;-80
2023/01/20 13:07:49;;;;;;;39.92;25.88;;;2.00;99.90;;;;;;4983716;28;20053;-80
2023/01/20 13:10:34;;;;;;;42.38;26.95;;;2.00;99.90;;;;;;4990942;28;20491;-81